createdAt,value
2017-11-07T00:02:25.054Z,95.79
2017-11-07T00:04:53.366Z,95.77
2017-11-07T00:07:21.688Z,95.78
2017-11-07T00:09:50.003Z,95.62
2017-11-07T00:12:18.350Z,95.75
2017-11-07T00:14:46.671Z,95.63
2017-11-07T00:17:15.797Z,95.39
2017-11-07T00:19:44.110Z,95.53
2017-11-07T00:22:12.442Z,95.72
2017-11-07T00:24:40.783Z,95.76
2017-11-07T00:27:09.894Z,95.73
2017-11-07T00:29:38.996Z,96.00
2017-11-07T00:32:07.317Z,96.19
2017-11-07T00:34:35.638Z,96.20
2017-11-07T00:37:04.784Z,96.31
2017-11-07T00:39:33.102Z,96.30
2017-11-07T00:42:01.432Z,96.29
2017-11-07T00:44:29.763Z,96.37
2017-11-07T00:46:58.854Z,96.12
2017-11-07T00:49:27.945Z,96.13
2017-11-07T00:51:56.258Z,96.16
2017-11-07T00:54:24.571Z,96.24
2017-11-07T00:56:52.899Z,96.26
2017-11-07T00:59:21.973Z,96.11
2017-11-07T01:01:51.082Z,96.07
2017-11-07T01:04:20.171Z,95.87
2017-11-07T01:06:49.267Z,95.68
2017-11-07T01:09:18.351Z,95.71
2017-11-07T01:11:46.666Z,95.85
2017-11-07T01:14:14.995Z,95.58
2017-11-07T01:16:43.305Z,95.70
2017-11-07T01:19:12.371Z,95.91
2017-11-07T01:21:40.694Z,95.97
2017-11-07T01:24:09.011Z,95.81
2017-11-07T01:26:37.333Z,95.53
2017-11-07T01:29:06.646Z,95.05
2017-11-07T01:31:34.974Z,95.23
2017-11-07T01:34:03.306Z,95.55
2017-11-07T01:36:31.628Z,95.54
2017-11-07T01:38:59.963Z,95.58
2017-11-07T01:41:28.278Z,95.43
2017-11-07T01:43:56.596Z,95.55
2017-11-07T01:46:27.495Z,95.72
2017-11-07T01:48:55.836Z,95.73
2017-11-07T01:51:24.163Z,95.74
2017-11-07T01:53:52.493Z,95.64
2017-11-07T01:56:20.795Z,95.69
2017-11-07T01:58:49.111Z,95.59
2017-11-07T02:01:18.197Z,95.66
2017-11-07T02:03:46.509Z,95.70
2017-11-07T02:06:14.845Z,95.76
2017-11-07T02:08:43.172Z,95.66
2017-11-07T02:11:11.468Z,95.46
2017-11-07T02:13:39.799Z,95.06
2017-11-07T02:16:08.874Z,95.03
2017-11-07T02:18:37.195Z,95.35
2017-11-07T02:21:05.490Z,95.41
2017-11-07T02:23:33.802Z,95.51
2017-11-07T02:26:02.110Z,95.56
2017-11-07T02:28:31.188Z,95.42
2017-11-07T02:30:59.491Z,95.58
2017-11-07T02:33:27.842Z,95.50
2017-11-07T02:35:56.146Z,95.57
2017-11-07T02:38:24.453Z,95.52
2017-11-07T02:40:52.778Z,95.45
2017-11-07T02:43:21.850Z,95.47
2017-11-07T02:45:50.170Z,95.39
2017-11-07T02:48:18.470Z,95.39
2017-11-07T02:50:46.790Z,95.14
2017-11-07T02:53:15.121Z,95.25
2017-11-07T02:55:43.445Z,95.05
2017-11-07T02:58:11.781Z,95.12
2017-11-07T03:00:40.110Z,94.97
2017-11-07T03:03:08.423Z,95.13
2017-11-07T03:05:36.746Z,95.17
2017-11-07T03:08:05.046Z,95.40
2017-11-07T03:10:34.144Z,95.36
2017-11-07T03:13:03.207Z,95.30
2017-11-07T03:15:31.521Z,95.31
2017-11-07T03:18:00.617Z,95.17
2017-11-07T03:20:29.711Z,94.97
2017-11-07T03:22:58.810Z,94.87
2017-11-07T03:25:27.885Z,94.85
2017-11-07T03:27:56.191Z,94.71
2017-11-07T03:30:24.499Z,94.67
2017-11-07T03:32:52.808Z,94.52
2017-11-07T03:35:21.113Z,94.50
2017-11-07T03:37:50.184Z,94.63
2017-11-07T03:40:18.493Z,94.77
2017-11-07T03:42:47.556Z,94.81
2017-11-07T03:45:15.874Z,95.05
2017-11-07T03:47:44.200Z,94.89
2017-11-07T03:50:12.504Z,94.74
2017-11-07T03:52:41.573Z,95.01
2017-11-07T03:55:09.890Z,95.19
2017-11-07T03:57:38.946Z,95.23
2017-11-07T04:00:07.249Z,95.18
2017-11-07T04:02:36.337Z,95.08
2017-11-07T04:05:04.650Z,95.03
2017-11-07T04:07:32.951Z,95.30
2017-11-07T04:10:01.262Z,95.40
2017-11-07T04:12:29.568Z,95.56
2017-11-07T04:14:57.892Z,95.41
2017-11-07T04:17:26.199Z,95.41
2017-11-07T04:19:54.494Z,95.29
2017-11-07T04:22:23.577Z,95.35
2017-11-07T04:24:51.877Z,95.86
2017-11-07T04:27:20.190Z,96.01
2017-11-07T04:29:48.501Z,95.85
2017-11-07T04:32:16.809Z,95.76
2017-11-07T04:34:45.102Z,95.57
2017-11-07T04:37:13.411Z,95.48
2017-11-07T04:39:41.714Z,95.25
2017-11-07T04:42:10.790Z,95.03
2017-11-07T04:44:39.097Z,95.51
2017-11-07T04:47:08.174Z,95.42
2017-11-07T04:49:36.481Z,95.46
2017-11-07T04:52:04.793Z,95.52
2017-11-07T04:54:33.091Z,95.39
2017-11-07T04:57:01.399Z,95.38
2017-11-07T04:59:30.473Z,95.33
2017-11-07T05:01:58.786Z,95.23
2017-11-07T05:04:27.098Z,95.42
2017-11-07T05:06:55.419Z,95.56
2017-11-07T05:09:24.488Z,95.45
2017-11-07T05:11:52.794Z,95.48
2017-11-07T05:14:21.901Z,95.52
2017-11-07T05:16:50.214Z,95.52
2017-11-07T05:19:18.507Z,95.46
2017-11-07T05:21:46.837Z,94.98
2017-11-07T05:24:15.161Z,95.26
2017-11-07T05:26:43.465Z,95.14
2017-11-07T05:29:11.798Z,95.34
2017-11-07T05:31:40.117Z,95.36
2017-11-07T05:34:08.429Z,95.85
2017-11-07T05:36:36.754Z,96.15
2017-11-07T05:39:05.103Z,96.29
2017-11-07T05:41:33.423Z,96.45
2017-11-07T05:44:01.725Z,96.00
2017-11-07T05:46:30.803Z,96.13
2017-11-07T05:48:59.889Z,96.14
2017-11-07T05:51:28.204Z,95.97
2017-11-07T05:53:56.521Z,96.00
2017-11-07T05:56:24.825Z,96.03
2017-11-07T05:58:53.137Z,96.27
2017-11-07T06:01:21.437Z,96.21
2017-11-07T06:03:49.736Z,96.27
2017-11-07T06:06:18.033Z,96.43
2017-11-07T06:08:46.345Z,96.42
2017-11-07T06:11:14.661Z,96.22
2017-11-07T06:13:42.977Z,96.31
2017-11-07T06:16:12.057Z,96.27
2017-11-07T06:18:40.372Z,96.44
2017-11-07T06:21:08.693Z,96.25
2017-11-07T06:23:37.009Z,96.18
2017-11-07T06:26:06.087Z,95.86
2017-11-07T06:28:34.419Z,95.95
2017-11-07T06:31:02.717Z,95.56
2017-11-07T06:33:31.029Z,95.61
2017-11-07T06:36:00.097Z,95.50
2017-11-07T06:38:28.417Z,95.44
2017-11-07T06:40:57.477Z,95.70
2017-11-07T06:43:25.789Z,95.73
2017-11-07T06:45:54.863Z,95.99
2017-11-07T06:48:23.938Z,95.99
2017-11-07T06:50:52.338Z,95.55
2017-11-07T06:53:21.422Z,96.07
2017-11-07T06:55:49.725Z,95.91
2017-11-07T06:58:18.808Z,95.71
2017-11-07T07:00:47.950Z,95.28
2017-11-07T07:03:16.282Z,95.05
2017-11-07T07:05:45.366Z,95.64
2017-11-07T07:08:13.692Z,95.73
2017-11-07T07:10:42.009Z,95.43
2017-11-07T07:13:10.348Z,95.39
2017-11-07T07:15:38.650Z,95.37
2017-11-07T07:18:06.952Z,95.25
2017-11-07T07:20:35.265Z,95.25
2017-11-07T07:23:03.584Z,95.25
2017-11-07T07:25:31.900Z,94.14
2017-11-07T07:28:00.970Z,94.32
2017-11-07T07:30:29.302Z,94.01
2017-11-07T07:32:57.609Z,93.90
2017-11-07T07:35:26.041Z,93.72
2017-11-07T07:37:54.358Z,94.09
2017-11-07T07:40:22.675Z,94.00
2017-11-07T07:42:50.985Z,94.40
2017-11-07T07:45:19.302Z,95.88
2017-11-07T07:47:47.605Z,94.28
2017-11-07T07:50:15.919Z,94.22
2017-11-07T07:52:44.225Z,93.80
2017-11-07T07:55:12.569Z,93.87
2017-11-07T07:57:40.865Z,94.21
2017-11-07T08:00:09.196Z,94.50
2017-11-07T08:02:38.393Z,94.31
2017-11-07T08:05:06.725Z,94.50
2017-11-07T08:07:35.074Z,94.23
2017-11-07T08:10:03.410Z,94.32
2017-11-07T08:12:31.731Z,94.25
2017-11-07T08:15:00.060Z,93.92
2017-11-07T08:17:28.385Z,94.23
2017-11-07T08:19:56.698Z,94.26
2017-11-07T08:22:25.001Z,94.05
2017-11-07T08:24:53.314Z,93.48
2017-11-07T08:27:21.617Z,93.49
2017-11-07T08:29:49.936Z,93.60
2017-11-07T08:32:18.244Z,92.72
2017-11-07T08:34:46.560Z,92.54
2017-11-07T08:37:14.861Z,92.35
2017-11-07T08:39:43.178Z,91.74
2017-11-07T08:42:11.617Z,91.43
2017-11-07T08:44:40.109Z,91.92
2017-11-07T08:47:08.426Z,91.77
2017-11-07T08:49:36.744Z,92.16
2017-11-07T08:52:05.087Z,92.96
2017-11-07T08:54:33.430Z,91.81
2017-11-07T08:57:01.721Z,90.60
2017-11-07T08:59:30.797Z,91.05
2017-11-07T09:01:59.108Z,92.66
2017-11-07T09:04:27.417Z,91.02
2017-11-07T09:06:55.729Z,90.61
2017-11-07T09:09:24.041Z,89.09
2017-11-07T09:11:52.364Z,89.92
2017-11-07T09:14:20.675Z,88.62
2017-11-07T09:16:49.754Z,88.84
2017-11-07T09:19:18.052Z,89.23
2017-11-07T09:21:47.126Z,89.63
2017-11-07T09:24:15.434Z,90.33
2017-11-07T09:26:43.751Z,90.87
2017-11-07T09:29:12.072Z,91.07
2017-11-07T09:31:41.153Z,90.53
2017-11-07T09:34:09.461Z,90.49
2017-11-07T09:36:37.786Z,89.41
2017-11-07T09:39:06.130Z,88.85
2017-11-07T09:41:34.447Z,88.24
2017-11-07T09:44:02.778Z,87.28
2017-11-07T09:46:31.095Z,87.26
2017-11-07T09:48:59.407Z,87.29
2017-11-07T09:51:28.510Z,86.26
2017-11-07T09:53:57.595Z,86.00
2017-11-07T09:56:26.691Z,84.21
2017-11-07T09:58:55.800Z,83.90
2017-11-07T10:01:24.881Z,83.52
2017-11-07T10:03:53.961Z,83.85
2017-11-07T10:06:22.276Z,84.27
2017-11-07T10:08:50.585Z,85.02
2017-11-07T10:11:18.907Z,85.00
2017-11-07T10:13:47.981Z,83.94
2017-11-07T10:16:16.305Z,84.53
2017-11-07T10:18:44.611Z,84.88
2017-11-07T10:21:13.691Z,84.51
2017-11-07T10:23:41.990Z,83.41
2017-11-07T10:26:10.302Z,83.09
2017-11-07T10:28:38.617Z,83.59
2017-11-07T10:31:06.925Z,84.08
2017-11-07T10:33:35.232Z,84.25
2017-11-07T10:36:03.541Z,84.92
2017-11-07T10:38:31.851Z,85.10
2017-11-07T10:41:00.164Z,84.88
2017-11-07T10:43:28.473Z,84.47
2017-11-07T10:45:57.354Z,84.45
2017-11-07T10:48:26.429Z,84.50
2017-11-07T10:50:54.736Z,84.26
2017-11-07T10:53:23.081Z,84.00
2017-11-07T10:55:51.373Z,84.16
2017-11-07T10:58:20.442Z,84.20
2017-11-07T11:00:48.753Z,85.05
2017-11-07T11:03:17.087Z,84.70
2017-11-07T11:05:45.402Z,84.41
2017-11-07T11:08:14.497Z,83.87
2017-11-07T11:10:43.557Z,84.25
2017-11-07T11:13:11.883Z,84.13
2017-11-07T11:15:40.194Z,84.75
2017-11-07T11:18:08.501Z,84.15
2017-11-07T11:20:36.797Z,82.93
2017-11-07T11:23:05.873Z,83.83
2017-11-07T11:25:34.174Z,83.98
2017-11-07T11:28:03.270Z,83.46
2017-11-07T11:30:32.339Z,83.60
2017-11-07T11:33:00.682Z,83.38
2017-11-07T11:35:28.993Z,83.28
2017-11-07T11:37:57.304Z,83.53
2017-11-07T11:40:25.617Z,83.41
2017-11-07T11:42:53.929Z,83.31
2017-11-07T11:45:22.233Z,83.16
2017-11-07T11:47:51.322Z,83.60
2017-11-07T11:50:20.389Z,84.06
2017-11-07T11:52:48.698Z,83.22
2017-11-07T11:55:17.054Z,83.22
2017-11-07T11:57:45.393Z,83.61
2017-11-07T12:00:13.706Z,84.07
2017-11-07T12:02:42.017Z,84.26
2017-11-07T12:05:10.313Z,84.47
2017-11-07T12:07:38.641Z,83.91
2017-11-07T12:10:07.731Z,83.00
2017-11-07T12:15:09.575Z,83.07
2017-11-07T12:17:37.881Z,82.04
2017-11-07T12:20:06.225Z,82.68
2017-11-07T12:22:34.534Z,82.47
2017-11-07T12:25:02.833Z,83.04
2017-11-07T12:27:31.909Z,81.85
2017-11-07T12:30:00.213Z,82.12
2017-11-07T12:32:29.287Z,82.08
2017-11-07T12:34:57.582Z,82.12
2017-11-07T12:37:26.660Z,81.82
2017-11-07T12:39:55.738Z,82.44
2017-11-07T12:42:24.046Z,82.37
2017-11-07T12:44:53.108Z,82.41
2017-11-07T12:47:21.413Z,82.96
2017-11-07T12:49:51.067Z,83.07
2017-11-07T12:52:19.377Z,83.38
2017-11-07T12:54:47.691Z,84.42
2017-11-07T12:57:16.804Z,83.50
2017-11-07T12:59:45.126Z,83.64
2017-11-07T13:02:13.437Z,84.02
2017-11-07T13:04:42.546Z,83.85
2017-11-07T13:07:10.854Z,83.56
2017-11-07T13:09:39.165Z,82.74
2017-11-07T13:12:08.278Z,82.93
2017-11-07T13:14:37.357Z,82.66
2017-11-07T13:17:05.662Z,81.97
2017-11-07T13:19:33.973Z,82.67
2017-11-07T13:22:02.276Z,82.93
2017-11-07T13:24:30.586Z,83.05
2017-11-07T13:26:58.900Z,83.15
2017-11-07T13:29:27.202Z,82.69
2017-11-07T13:31:55.501Z,83.20
2017-11-07T13:34:24.733Z,83.61
2017-11-07T13:36:53.049Z,83.97
2017-11-07T13:39:21.371Z,83.98
2017-11-07T13:41:50.437Z,83.90
2017-11-07T13:44:18.746Z,83.98
2017-11-07T13:46:47.825Z,83.99
2017-11-07T13:49:16.911Z,84.40
2017-11-07T13:51:45.209Z,84.77
2017-11-07T13:54:14.285Z,85.18
2017-11-07T13:56:43.009Z,85.25
2017-11-07T13:59:11.321Z,85.43
2017-11-07T14:01:39.617Z,85.54
2017-11-07T14:04:07.939Z,85.47
2017-11-07T14:06:36.253Z,85.18
2017-11-07T14:09:04.595Z,85.02
2017-11-07T14:11:32.906Z,84.89
2017-11-07T14:14:01.231Z,84.62
2017-11-07T14:16:30.298Z,84.46
2017-11-07T14:18:58.621Z,84.22
2017-11-07T14:21:26.937Z,84.27
2017-11-07T14:23:55.245Z,84.22
2017-11-07T14:26:23.537Z,84.57
2017-11-07T14:28:51.861Z,84.86
2017-11-07T14:31:20.187Z,85.21
2017-11-07T14:33:49.277Z,85.02
2017-11-07T14:36:18.345Z,85.35
2017-11-07T14:38:47.389Z,85.32
2017-11-07T14:41:15.729Z,85.26
2017-11-07T14:43:44.074Z,85.16
2017-11-07T14:46:12.378Z,85.29
2017-11-07T14:48:40.714Z,85.49
2017-11-07T14:51:09.097Z,85.40
2017-11-07T14:53:37.405Z,85.58
2017-11-07T14:56:05.717Z,85.84
2017-11-07T14:58:34.057Z,85.83
2017-11-07T15:01:02.355Z,86.22
2017-11-07T15:03:31.464Z,86.44
2017-11-07T15:06:00.541Z,86.16
2017-11-07T15:08:28.868Z,86.04
2017-11-07T15:10:57.173Z,86.38
2017-11-07T15:13:25.505Z,86.44
2017-11-07T15:15:53.817Z,86.28
2017-11-07T15:18:22.124Z,86.44
2017-11-07T15:20:50.446Z,86.56
2017-11-07T15:23:18.745Z,86.50
2017-11-07T15:25:47.059Z,86.72
2017-11-07T15:28:15.388Z,86.86
2017-11-07T15:30:43.707Z,87.30
2017-11-07T15:33:11.997Z,87.21
2017-11-07T15:35:40.317Z,87.45
2017-11-07T15:38:08.621Z,87.21
2017-11-07T15:40:36.936Z,87.50
2017-11-07T15:43:05.244Z,87.38
2017-11-07T15:45:33.549Z,87.53
2017-11-07T15:48:01.846Z,87.98
2017-11-07T15:50:30.158Z,87.90
2017-11-07T15:52:59.225Z,87.96
2017-11-07T15:55:27.545Z,88.01
2017-11-07T15:57:55.864Z,87.82
2017-11-07T16:00:25.307Z,87.49
2017-11-07T16:02:53.641Z,87.76
2017-11-07T16:05:21.997Z,87.66
2017-11-07T16:07:50.293Z,87.71
2017-11-07T16:10:18.596Z,87.62
2017-11-07T16:12:47.669Z,87.76
2017-11-07T16:15:15.973Z,87.65
2017-11-07T16:17:44.269Z,87.73
2017-11-07T16:20:13.393Z,87.42
2017-11-07T16:22:41.690Z,87.44
2017-11-07T16:25:09.993Z,87.47
2017-11-07T16:27:38.290Z,87.47
2017-11-07T16:30:07.381Z,87.30
2017-11-07T16:32:36.485Z,87.34
2017-11-07T16:35:05.557Z,87.02
2017-11-07T16:37:33.852Z,87.31
2017-11-07T16:40:02.929Z,87.40
2017-11-07T16:42:31.230Z,87.24
2017-11-07T16:44:59.545Z,87.29
2017-11-07T16:47:27.849Z,87.43
2017-11-07T16:49:56.173Z,87.24
2017-11-07T16:52:24.481Z,87.14
2017-11-07T16:54:52.793Z,87.07
2017-11-07T16:57:21.116Z,87.72
2017-11-07T16:59:49.417Z,87.23
2017-11-07T17:02:17.761Z,87.18
2017-11-07T17:04:46.085Z,87.08
2017-11-07T17:07:14.629Z,86.90
2017-11-07T17:09:42.953Z,87.08
2017-11-07T17:12:11.269Z,87.22
2017-11-07T17:14:40.341Z,87.15
2017-11-07T17:17:09.405Z,87.33
2017-11-07T17:19:37.742Z,87.26
2017-11-07T17:22:06.041Z,87.13
2017-11-07T17:24:34.416Z,87.10
2017-11-07T17:27:02.730Z,87.04
2017-11-07T17:29:31.045Z,86.99
2017-11-07T17:31:59.362Z,86.96
2017-11-07T17:34:27.677Z,86.84
2017-11-07T17:36:56.008Z,86.88
2017-11-07T17:39:24.334Z,86.99
2017-11-07T17:41:52.660Z,87.07
2017-11-07T17:44:20.977Z,87.15
2017-11-07T17:46:50.108Z,87.36
2017-11-07T17:49:18.414Z,87.18
2017-11-07T17:51:46.733Z,87.05
2017-11-07T17:54:15.048Z,87.02
2017-11-07T17:56:43.384Z,87.26
2017-11-07T17:59:11.702Z,87.13
2017-11-07T18:01:40.025Z,87.14
2017-11-07T18:04:08.370Z,87.04
2017-11-07T18:06:36.686Z,86.90
2017-11-07T18:09:05.026Z,87.00
2017-11-07T18:11:33.367Z,86.98
2017-11-07T18:14:02.438Z,86.93
2017-11-07T18:16:30.762Z,86.93
2017-11-07T18:18:59.066Z,86.58
2017-11-07T18:21:27.421Z,86.55
2017-11-07T18:23:55.724Z,86.86
2017-11-07T18:26:24.069Z,86.75
2017-11-07T18:28:52.389Z,86.82
2017-11-07T18:31:20.714Z,86.67
2017-11-07T18:33:49.777Z,86.64
2017-11-07T18:36:18.103Z,86.66
2017-11-07T18:38:46.417Z,86.61
2017-11-07T18:41:14.773Z,86.14
2017-11-07T18:43:43.109Z,86.51
2017-11-07T18:46:12.189Z,86.57
2017-11-07T18:48:40.526Z,86.65
2017-11-07T18:51:09.199Z,86.44
2017-11-07T18:53:37.561Z,86.37
2017-11-07T18:56:05.881Z,86.40
2017-11-07T18:58:34.244Z,86.36
2017-11-07T19:01:02.557Z,86.54
2017-11-07T19:03:30.873Z,86.54
2017-11-07T19:05:59.233Z,86.61
2017-11-07T19:08:27.561Z,86.58
2017-11-07T19:10:55.878Z,86.63
2017-11-07T19:13:24.199Z,86.56
2017-11-07T19:15:52.526Z,86.55
2017-11-07T19:18:20.933Z,86.67
2017-11-07T19:20:50.015Z,86.53
2017-11-07T19:23:18.329Z,86.44
2017-11-07T19:25:46.638Z,86.76
2017-11-07T19:28:14.966Z,86.58
2017-11-07T19:30:43.279Z,86.61
2017-11-07T19:33:11.625Z,86.68
2017-11-07T19:35:39.935Z,86.68
2017-11-07T19:38:08.303Z,86.60
2017-11-07T19:40:36.602Z,86.59
2017-11-07T19:43:04.929Z,86.66
2017-11-07T19:45:34.021Z,86.57
2017-11-07T19:48:03.103Z,86.75
2017-11-07T19:50:32.183Z,86.72
2017-11-07T19:53:00.501Z,86.92
2017-11-07T19:55:28.806Z,87.41
2017-11-07T19:57:57.138Z,87.54
2017-11-07T20:00:26.225Z,87.44
2017-11-07T20:02:54.565Z,87.76
2017-11-07T20:05:22.887Z,87.66
2017-11-07T20:07:51.982Z,87.74
2017-11-07T20:10:21.060Z,87.91
2017-11-07T20:12:49.377Z,88.04
2017-11-07T20:15:17.673Z,87.91
2017-11-07T20:17:46.002Z,87.84
2017-11-07T20:20:15.104Z,88.05
2017-11-07T20:22:44.199Z,88.36
2017-11-07T20:25:13.292Z,88.42
2017-11-07T20:27:41.601Z,88.61
2017-11-07T20:30:09.970Z,88.66
2017-11-07T20:32:38.294Z,88.60
2017-11-07T20:35:06.634Z,88.73
2017-11-07T20:37:34.989Z,88.50
2017-11-07T20:40:04.099Z,88.33
2017-11-07T20:42:32.436Z,88.19
2017-11-07T20:45:00.784Z,88.39
2017-11-07T20:47:29.109Z,88.22
2017-11-07T20:49:58.203Z,88.34
2017-11-07T20:52:27.298Z,88.18
2017-11-07T20:54:55.617Z,88.45
2017-11-07T20:57:23.927Z,88.59
2017-11-07T20:59:52.253Z,88.72
2017-11-07T21:02:20.573Z,88.79
2017-11-07T21:04:48.905Z,88.78
2017-11-07T21:07:17.268Z,89.08
2017-11-07T21:09:46.356Z,89.17
2017-11-07T21:12:14.670Z,88.95
2017-11-07T21:14:43.853Z,88.99
2017-11-07T21:17:12.174Z,89.22
2017-11-07T21:19:40.506Z,89.90
2017-11-07T21:22:08.810Z,89.77
2017-11-07T21:24:37.134Z,89.78
2017-11-07T21:27:05.439Z,89.61
2017-11-07T21:29:34.526Z,89.53
2017-11-07T21:32:03.605Z,89.80
2017-11-07T21:34:31.917Z,89.69
2017-11-07T21:37:00.251Z,89.70
2017-11-07T21:39:28.553Z,90.20
2017-11-07T21:41:57.646Z,90.15
2017-11-07T21:44:26.727Z,90.11
2017-11-07T21:46:55.048Z,90.38
2017-11-07T21:49:23.379Z,90.26
2017-11-07T21:51:51.713Z,90.58
2017-11-07T21:54:20.038Z,90.39
2017-11-07T21:56:48.362Z,90.36
2017-11-07T21:59:16.688Z,90.45
2017-11-07T22:01:45.023Z,90.39
2017-11-07T22:04:13.349Z,90.45
2017-11-07T22:06:41.657Z,90.54
2017-11-07T22:09:12.314Z,90.52
2017-11-07T22:11:40.641Z,90.69
2017-11-07T22:14:08.942Z,90.71
2017-11-07T22:16:42.882Z,90.87
2017-11-07T22:19:13.094Z,90.88
2017-11-07T22:21:41.411Z,91.09
2017-11-07T22:24:09.717Z,91.07
2017-11-07T22:26:38.805Z,91.33
2017-11-07T22:29:07.902Z,91.24
2017-11-07T22:31:36.981Z,91.15
2017-11-07T22:34:05.290Z,91.50
2017-11-07T22:36:33.616Z,91.44
2017-11-07T22:39:01.937Z,91.54
2017-11-07T22:41:31.018Z,91.50
2017-11-07T22:44:00.096Z,91.62
2017-11-07T22:46:28.405Z,91.59
2017-11-07T22:48:56.701Z,91.57
2017-11-07T22:51:25.049Z,91.28
2017-11-07T22:53:54.125Z,91.45
2017-11-07T22:56:22.443Z,91.56
2017-11-07T22:58:50.767Z,91.79
2017-11-07T23:01:19.086Z,91.92
2017-11-07T23:03:48.149Z,91.69
2017-11-07T23:06:17.961Z,91.66
2017-11-07T23:08:46.281Z,91.63
2017-11-07T23:11:14.593Z,91.73
2017-11-07T23:13:42.910Z,91.84
2017-11-07T23:16:11.221Z,91.66
2017-11-07T23:18:39.545Z,91.65
2017-11-07T23:21:07.873Z,91.71
2017-11-07T23:23:36.200Z,91.90
2017-11-07T23:26:04.516Z,91.71
2017-11-07T23:28:33.588Z,91.99
2017-11-07T23:31:01.921Z,91.83
2017-11-07T23:33:30.222Z,91.79
2017-11-07T23:35:58.540Z,91.94
2017-11-07T23:38:27.616Z,92.15
2017-11-07T23:40:55.946Z,92.11
2017-11-07T23:43:24.268Z,92.43
2017-11-07T23:45:52.601Z,92.48
2017-11-07T23:48:20.929Z,92.49
2017-11-07T23:50:49.247Z,92.41
2017-11-07T23:53:17.581Z,92.25
2017-11-07T23:55:45.899Z,92.25
2017-11-07T23:58:14.216Z,92.42
